Time,TemperatureF,DewpointF,PressureIn,WindDirection,WindDirectionDegrees,WindSpeedMPH,WindSpeedGustMPH,Humidity,HourlyPrecipIn,Conditions,Clouds,dailyrainin,SoftwareType,DateUTC
2013-02-22 12:00:00,21.1,14.4,30.25,East,79,2.9,12.0,75,0.00,CLR,,0.00,WeatherDisplay:10.37,2013-02-22 17:00:00,
2013-02-22 12:05:00,21.1,14.1,30.25,ENE,75,2.2,12.0,74,0.00,CLR,,0.00,WeatherDisplay:10.37,2013-02-22 17:05:00,
2013-02-22 12:10:00,21.1,13.8,30.24,ESE,113,3.7,12.0,73,0.00,CLR,,0.00,WeatherDisplay:10.37,2013-02-22 17:10:00,
2013-02-22 12:15:00,21.1,13.5,30.24,SW,224,3.9,12.0,72,0.00,CLR,,0.00,WeatherDisplay:10.37,2013-02-22 17:15:00,
2013-02-22 12:20:00,21.1,13.5,30.24,East,82,5.7,12.0,72,0.00,CLR,,0.00,WeatherDisplay:10.37,2013-02-22 17:20:00,
2013-02-22 12:25:00,21.1,13.8,30.23,ENE,75,4.5,12.0,73,0.00,CLR,,0.00,WeatherDisplay:10.37,2013-02-22 17:25:00,
2013-02-22 12:30:00,21.1,13.8,30.23,NE,36,3.3,12.0,73,0.00,CLR,,0.00,WeatherDisplay:10.37,2013-02-22 17:30:00,
2013-02-22 12:35:00,21.1,13.8,30.23,East,93,3.1,12.0,73,0.00,CLR,,0.00,WeatherDisplay:10.37,2013-02-22 17:35:00,
2013-02-22 12:40:00,21.1,13.5,30.23,SW,225,3.5,12.0,72,0.00,CLR,,0.00,WeatherDisplay:10.37,2013-02-22 17:40:00,
2013-02-22 12:45:00,21.1,13.2,30.22,ESE,103,5.0,12.0,71,0.00,CLR,,0.00,WeatherDisplay:10.37,2013-02-22 17:45:00,
2013-02-22 12:50:00,21.1,13.2,30.21,ENE,72,5.5,12.0,71,0.00,CLR,,0.00,WeatherDisplay:10.37,2013-02-22 17:50:00,
2013-02-22 12:55:00,21.1,13.2,30.21,ESE,115,4.7,12.0,71,0.00,CLR,,0.00,WeatherDisplay:10.37,2013-02-22 17:55:00,
2013-02-22 13:00:00,21.1,13.2,30.20,ENE,57,7.5,12.0,71,0.00,CLR,,0.00,WeatherDisplay:10.37,2013-02-22 18:00:00,
2013-02-22 13:05:00,21.1,13.5,30.19,ENE,58,2.7,12.0,72,0.00,CLR,,0.00,WeatherDisplay:10.37,2013-02-22 18:05:00,
2013-02-22 13:10:00,21.1,12.8,30.19,East,82,4.2,12.0,70,0.00,CLR,,0.00,WeatherDisplay:10.37,2013-02-22 18:10:00,
2013-02-22 13:20:00,21.1,12.8,30.18,ENE,59,0.0,8.1,70,0.00,CLR,,0.00,WeatherDisplay:10.37,2013-02-22 18:20:00,
2013-02-22 13:29:00,21.1,12.5,30.18,ESE,108,0.0,6.0,69,0.00,CLR,,0.00,WeatherDisplay:10.37,2013-02-22 18:29:00,
2013-02-22 13:34:00,21.1,12.5,30.18,East,89,2.6,10.0,69,0.00,CLR,,0.00,WeatherDisplay:10.37,2013-02-22 18:34:00,
2013-02-22 13:39:00,21.1,12.8,30.17,East,86,7.1,13.0,70,0.00,CLR,,0.00,WeatherDisplay:10.37,2013-02-22 18:39:00,
2013-02-22 13:44:00,21.1,12.8,30.18,ESE,115,4.1,13.0,70,0.00,CLR,,0.00,WeatherDisplay:10.37,2013-02-22 18:44:00,
2013-02-22 13:49:00,21.1,12.5,30.18,East,87,5.0,11.5,69,0.00,CLR,,0.00,WeatherDisplay:10.37,2013-02-22 18:49:00,
2013-02-22 13:54:00,21.1,12.5,30.18,East,86,3.6,11.5,69,0.00,CLR,,0.00,WeatherDisplay:10.37,2013-02-22 18:54:00,
2013-02-22 13:59:00,21.1,12.5,30.18,SSE,160,0.4,6.9,69,0.00,CLR,,0.00,WeatherDisplay:10.37,2013-02-22 18:59:00,
2013-02-22 14:04:00,21.1,12.2,30.19,ESE,103,3.9,7.0,68,0.00,CLR,,0.00,WeatherDisplay:10.37,2013-02-22 19:04:00,
2013-02-22 14:09:00,32.0,22.6,30.18,West,260,1.6,6.9,68,0.00,CLR,,0.00,WeatherDisplay:10.37,2013-02-22 19:09:00,
2013-02-22 14:14:00,32.1,22.7,30.18,East,80,6.1,11.5,68,0.00,CLR,,0.00,WeatherDisplay:10.37,2013-02-22 19:14:00,
2013-02-22 14:19:00,32.1,22.7,30.18,SSW,201,1.7,11.5,68,0.00,CLR,,0.00,WeatherDisplay:10.37,2013-02-22 19:19:00,
2013-02-22 14:24:00,32.2,22.8,30.17,ENE,62,0.9,11.5,68,0.00,CLR,,0.00,WeatherDisplay:10.37,2013-02-22 19:24:00,
2013-02-22 14:29:00,32.3,22.9,30.17,East,98,3.0,11.5,68,0.00,CLR,,0.00,WeatherDisplay:10.37,2013-02-22 19:29:00,
2013-02-22 14:34:00,32.4,23.0,30.18,NNE,23,4.8,11.5,68,0.00,CLR,,0.00,WeatherDisplay:10.37,2013-02-22 19:34:00,
2013-02-22 14:39:00,32.5,23.1,30.18,ENE,70,3.6,11.5,68,0.00,CLR,,0.00,WeatherDisplay:10.37,2013-02-22 19:39:00,
2013-02-22 14:44:00,32.4,23.4,30.17,East,88,4.3,11.5,69,0.00,CLR,,0.00,WeatherDisplay:10.37,2013-02-22 19:44:00,
2013-02-22 14:49:00,32.5,23.5,30.17,ESE,105,2.9,11.5,69,0.00,CLR,,0.00,WeatherDisplay:10.37,2013-02-22 19:49:00,
2013-02-22 14:54:00,32.5,23.5,30.17,ESE,118,3.9,11.5,69,0.00,CLR,,0.00,WeatherDisplay:10.37,2013-02-22 19:54:00,
2013-02-22 14:59:00,32.6,23.2,30.17,NNE,30,2.9,11.5,68,0.00,CLR,,0.00,WeatherDisplay:10.37,2013-02-22 19:59:00,
2013-02-22 15:04:00,32.7,23.3,30.18,East,89,2.7,11.5,68,0.00,CLR,,0.00,WeatherDisplay:10.37,2013-02-22 20:04:00,
2013-02-22 15:09:00,32.7,24.0,30.17,ESE,103,2.9,11.5,70,0.00,CLR,,0.00,WeatherDisplay:10.37,2013-02-22 20:09:00,
2013-02-22 15:14:00,32.1,24.7,30.17,NE,56,4.3,12.0,74,0.00,CLR,,0.00,WeatherDisplay:10.37,2013-02-22 20:14:00,
2013-02-22 15:19:00,31.1,25.7,30.17,ESE,110,5.0,12.0,80,0.00,CLR,,0.00,WeatherDisplay:10.37,2013-02-22 20:19:00,
2013-02-22 15:24:00,30.1,26.1,30.16,East,86,3.8,12.0,85,0.00,CLR,,0.00,WeatherDisplay:10.37,2013-02-22 20:24:00,
2013-02-22 15:29:00,29.6,26.5,30.16,ENE,65,2.1,12.0,88,0.00,CLR,,0.00,WeatherDisplay:10.37,2013-02-22 20:29:00,
2013-02-22 15:34:00,29.4,26.6,30.16,ESE,113,4.5,12.0,89,0.00,CLR,,0.00,WeatherDisplay:10.37,2013-02-22 20:34:00,
2013-02-22 15:39:00,29.4,26.8,30.15,NE,43,3.4,12.0,90,0.00,CLR,,0.00,WeatherDisplay:10.37,2013-02-22 20:39:00,
2013-02-22 15:44:00,29.4,26.8,30.15,ENE,70,3.6,12.0,90,0.00,CLR,,0.00,WeatherDisplay:10.37,2013-02-22 20:44:00,
2013-02-22 15:49:00,29.6,27.3,30.14,East,100,4.2,12.0,91,0.00,CLR,,0.00,WeatherDisplay:10.37,2013-02-22 20:49:00,
2013-02-22 15:54:00,29.7,27.4,30.14,ENE,71,4.6,12.0,91,0.00,CLR,,0.00,WeatherDisplay:10.37,2013-02-22 20:54:00,
2013-02-22 15:59:00,29.8,27.5,30.13,ENE,59,4.7,12.0,91,0.00,CLR,,0.00,WeatherDisplay:10.37,2013-02-22 20:59:00,
2013-02-22 16:04:00,29.9,27.3,30.12,ENE,61,5.4,12.0,90,0.00,CLR,,0.00,WeatherDisplay:10.37,2013-02-22 21:04:00,
2013-02-22 16:09:00,30.1,27.5,30.12,East,82,5.4,12.0,90,0.00,CLR,,0.00,WeatherDisplay:10.37,2013-02-22 21:09:00,
2013-02-22 16:14:00,30.3,27.7,30.12,ESE,121,5.0,12.0,90,0.00,CLR,,0.00,WeatherDisplay:10.37,2013-02-22 21:14:00,
2013-02-22 16:19:00,30.5,27.4,30.12,ENE,61,6.3,12.0,88,0.00,CLR,,0.00,WeatherDisplay:10.37,2013-02-22 21:19:00,
2013-02-22 16:24:00,30.7,27.6,30.11,East,99,6.2,12.0,88,0.00,CLR,,0.00,WeatherDisplay:10.37,2013-02-22 21:24:00,
2013-02-22 16:29:00,30.8,27.4,30.12,ESE,105,3.7,12.0,87,0.00,CLR,,0.00,WeatherDisplay:10.37,2013-02-22 21:29:00,
2013-02-22 16:34:00,31.0,27.6,30.11,ENE,68,5.2,12.0,87,0.00,CLR,,0.00,WeatherDisplay:10.37,2013-02-22 21:34:00,
2013-02-22 16:39:00,31.0,27.6,30.12,ESE,116,3.6,12.0,87,0.00,CLR,,0.00,WeatherDisplay:10.37,2013-02-22 21:39:00,
2013-02-22 16:44:00,31.0,27.3,30.11,ENE,72,6.7,12.0,86,0.00,CLR,,0.00,WeatherDisplay:10.37,2013-02-22 21:44:00,
2013-02-22 16:50:00,31.0,27.3,30.11,East,82,0.0,6.9,86,0.00,CLR,,0.00,WeatherDisplay:10.37,2013-02-22 21:50:00,
2013-02-22 16:55:00,31.0,27.3,30.11,East,83,2.0,6.9,86,0.00,CLR,,0.00,WeatherDisplay:10.37,2013-02-22 21:55:00,
2013-02-22 17:00:00,31.1,27.4,30.11,ENE,63,2.5,12.0,86,0.00,CLR,,0.00,WeatherDisplay:10.37,2013-02-22 22:00:00,
2013-02-22 17:05:00,31.1,27.4,30.11,East,100,3.6,12.0,86,0.00,CLR,,0.00,WeatherDisplay:10.37,2013-02-22 22:05:00,
2013-02-22 17:10:00,31.2,27.5,30.11,South,187,3.9,9.0,86,0.00,CLR,,0.00,WeatherDisplay:10.37,2013-02-22 22:10:00,
2013-02-22 17:15:00,31.3,27.3,30.10,East,94,4.6,9.2,85,0.00,CLR,,0.00,WeatherDisplay:10.37,2013-02-22 22:15:00,
2013-02-22 17:20:00,31.4,27.4,30.10,ENE,68,3.9,9.2,85,0.00,CLR,,0.00,WeatherDisplay:10.37,2013-02-22 22:20:00,
2013-02-22 17:25:00,31.5,27.2,30.11,East,90,2.4,9.2,84,0.00,CLR,,0.00,WeatherDisplay:10.37,2013-02-22 22:25:00,
2013-02-22 17:30:00,31.6,27.0,30.11,ENE,75,3.6,9.2,83,0.00,CLR,,0.00,WeatherDisplay:10.37,2013-02-22 22:30:00,
2013-02-22 17:35:00,31.7,27.1,30.10,NE,53,3.1,9.2,83,0.00,CLR,,0.00,WeatherDisplay:10.37,2013-02-22 22:35:00,
2013-02-22 17:40:00,31.9,27.0,30.10,East,85,3.4,9.2,82,0.00,CLR,,0.00,WeatherDisplay:10.37,2013-02-22 22:40:00,
2013-02-22 17:45:00,32.0,26.8,30.10,SE,134,3.6,9.2,81,0.00,CLR,,0.00,WeatherDisplay:10.37,2013-02-22 22:45:00,
2013-02-22 17:50:00,32.2,26.4,30.10,East,92,4.2,9.2,79,0.00,CLR,,0.00,WeatherDisplay:10.37,2013-02-22 22:50:00,
2013-02-22 17:55:00,32.4,26.3,30.10,East,89,1.0,9.2,78,0.00,CLR,,0.00,WeatherDisplay:10.37,2013-02-22 22:55:00,
2013-02-22 18:00:00,32.5,26.1,30.10,SSE,167,3.8,10.4,77,0.00,CLR,,0.00,WeatherDisplay:10.37,2013-02-22 23:00:00,
2013-02-22 18:05:00,32.8,26.1,30.10,ENE,71,2.4,10.4,76,0.00,CLR,,0.00,WeatherDisplay:10.37,2013-02-22 23:05:00,
2013-02-22 18:10:00,32.9,25.8,30.10,SE,132,2.6,10.4,75,0.00,CLR,,0.00,WeatherDisplay:10.37,2013-02-22 23:10:00,
2013-02-22 18:15:00,33.2,25.8,30.09,ENE,61,3.7,10.4,74,0.00,CLR,,0.00,WeatherDisplay:10.37,2013-02-22 23:15:00,
2013-02-22 18:20:00,33.3,25.9,30.09,ENE,71,4.6,10.4,74,0.00,CLR,,0.00,WeatherDisplay:10.37,2013-02-22 23:20:00,
2013-02-22 18:25:00,33.3,25.9,30.09,SSW,210,2.8,10.4,74,0.00,CLR,,0.00,WeatherDisplay:10.37,2013-02-22 23:25:00,
2013-02-22 18:30:00,33.4,26.0,30.09,SSW,197,4.5,10.4,74,0.00,CLR,,0.00,WeatherDisplay:10.37,2013-02-22 23:30:00,
2013-02-22 18:35:00,33.4,26.3,30.09,SE,133,1.2,10.4,75,0.00,CLR,,0.00,WeatherDisplay:10.37,2013-02-22 23:35:00,
2013-02-22 18:40:00,33.4,26.3,30.09,ENE,72,3.8,10.4,75,0.00,CLR,,0.00,WeatherDisplay:10.37,2013-02-22 23:40:00,
2013-02-22 18:45:00,33.4,26.0,30.09,East,101,0.8,10.4,74,0.00,CLR,,0.00,WeatherDisplay:10.37,2013-02-22 23:45:00,
2013-02-22 18:50:00,33.4,26.3,30.09,East,85,2.3,10.4,75,0.00,CLR,,0.00,WeatherDisplay:10.37,2013-02-22 23:50:00,
2013-02-22 18:55:00,33.5,26.4,30.09,SW,219,1.5,10.4,75,0.00,CLR,,0.00,WeatherDisplay:10.37,2013-02-22 23:55:00,
2013-02-22 19:00:00,33.5,26.1,30.09,East,88,2.9,10.4,74,0.00,CLR,,0.00,WeatherDisplay:10.37,2013-02-23 00:00:00,
2013-02-22 19:05:00,33.6,26.2,30.08,SE,141,1.7,10.4,74,0.00,CLR,,0.00,WeatherDisplay:10.37,2013-02-23 00:05:00,
2013-02-22 19:10:00,33.6,25.9,30.08,ESE,108,3.4,10.4,73,0.00,CLR,,0.00,WeatherDisplay:10.37,2013-02-23 00:10:00,
2013-02-22 19:15:00,33.7,26.0,30.08,East,97,2.0,10.4,73,0.00,CLR,,0.00,WeatherDisplay:10.37,2013-02-23 00:15:00,
2013-02-22 19:20:00,33.8,26.1,30.08,SSE,148,2.2,10.4,73,0.00,CLR,,0.00,WeatherDisplay:10.37,2013-02-23 00:20:00,
2013-02-22 19:25:00,33.9,26.2,30.08,ENE,71,1.3,10.4,73,0.00,CLR,,0.00,WeatherDisplay:10.37,2013-02-23 00:25:00,
2013-02-22 19:30:00,33.9,26.2,30.08,SE,141,2.4,10.4,73,0.00,CLR,,0.00,WeatherDisplay:10.37,2013-02-23 00:30:00,
2013-02-22 19:35:00,34.1,26.3,30.08,SSE,149,3.9,10.4,73,0.00,CLR,,0.00,WeatherDisplay:10.37,2013-02-23 00:35:00,
2013-02-22 19:40:00,34.1,26.3,30.08,ESE,113,2.3,10.4,73,0.00,CLR,,0.00,WeatherDisplay:10.37,2013-02-23 00:40:00,
2013-02-22 19:45:00,34.2,26.4,30.08,WNW,287,2.4,10.4,73,0.00,CLR,,0.00,WeatherDisplay:10.37,2013-02-23 00:45:00,
2013-02-22 19:50:00,34.3,26.5,30.08,SW,233,3.9,10.4,73,0.00,CLR,,0.00,WeatherDisplay:10.37,2013-02-23 00:50:00,
2013-02-22 19:55:00,34.4,26.6,30.08,ESE,121,1.7,10.4,73,0.00,CLR,,0.00,WeatherDisplay:10.37,2013-02-23 00:55:00,
2013-02-22 20:00:00,34.4,26.6,30.08,South,170,2.7,10.4,73,0.00,CLR,,0.00,WeatherDisplay:10.37,2013-02-23 01:00:00,
2013-02-22 20:05:00,34.5,26.7,30.08,SSW,197,2.4,10.4,73,0.00,CLR,,0.00,WeatherDisplay:10.37,2013-02-23 01:05:00,
2013-02-22 20:10:00,34.5,26.7,30.07,East,79,3.2,10.4,73,0.00,CLR,,0.00,WeatherDisplay:10.37,2013-02-23 01:10:00,
2013-02-22 20:15:00,34.5,26.7,30.07,SW,217,3.2,13.0,73,0.00,CLR,,0.00,WeatherDisplay:10.37,2013-02-23 01:15:00,
2013-02-22 20:20:00,34.5,26.7,30.07,South,170,4.5,13.0,73,0.00,CLR,,0.00,WeatherDisplay:10.37,2013-02-23 01:20:00,
2013-02-22 20:25:00,34.5,26.7,30.07,SW,222,5.2,13.0,73,0.00,CLR,,0.00,WeatherDisplay:10.37,2013-02-23 01:25:00,
2013-02-22 20:30:00,34.4,27.0,30.07,South,177,3.8,13.0,74,0.00,CLR,,0.00,WeatherDisplay:10.37,2013-02-23 01:30:00,
2013-02-22 20:35:00,34.2,27.4,30.07,SSE,150,3.4,13.0,76,0.00,CLR,,0.00,WeatherDisplay:10.37,2013-02-23 01:35:00,
2013-02-22 20:40:00,34.1,27.0,30.07,SSW,197,3.6,13.0,75,0.00,CLR,,0.00,WeatherDisplay:10.37,2013-02-23 01:40:00,
2013-02-22 20:45:00,34.2,26.8,30.07,SSE,158,3.3,13.0,74,0.00,CLR,,0.00,WeatherDisplay:10.37,2013-02-23 01:45:00,
2013-02-22 20:50:00,34.3,26.9,30.07,SSE,148,3.1,13.0,74,0.00,CLR,,0.00,WeatherDisplay:10.37,2013-02-23 01:50:00,
2013-02-22 20:55:00,34.3,26.9,30.07,SW,227,3.3,13.0,74,0.00,CLR,,0.00,WeatherDisplay:10.37,2013-02-23 01:55:00,
2013-02-22 21:00:00,34.3,26.9,30.07,ENE,76,2.3,13.0,74,0.00,CLR,,0.00,WeatherDisplay:10.37,2013-02-23 02:00:00,
2013-02-22 21:05:00,34.3,26.9,30.07,NE,40,2.4,13.0,74,0.00,CLR,,0.00,WeatherDisplay:10.37,2013-02-23 02:05:00,
2013-02-22 21:10:00,34.3,26.9,30.07,SW,217,4.6,13.0,74,0.00,CLR,,0.00,WeatherDisplay:10.37,2013-02-23 02:10:00,
2013-02-22 21:15:00,34.2,26.8,30.06,East,98,2.7,13.0,74,0.00,CLR,,0.00,WeatherDisplay:10.37,2013-02-23 02:15:00,
2013-02-22 21:20:00,34.2,26.8,30.06,East,94,4.3,13.0,74,0.00,CLR,,0.00,WeatherDisplay:10.37,2013-02-23 02:20:00,
2013-02-22 21:25:00,34.1,26.7,30.06,ENE,60,3.9,13.0,74,0.00,CLR,,0.00,WeatherDisplay:10.37,2013-02-23 02:25:00,
2013-02-22 21:30:00,34.1,26.7,30.06,SSE,153,2.8,13.0,74,0.00,CLR,,0.00,WeatherDisplay:10.37,2013-02-23 02:30:00,
2013-02-22 21:35:00,34.0,26.6,30.06,East,94,3.3,13.0,74,0.00,CLR,,0.00,WeatherDisplay:10.37,2013-02-23 02:35:00,
2013-02-22 21:40:00,34.0,26.9,30.06,SSE,165,3.1,13.0,75,0.00,CLR,,0.00,WeatherDisplay:10.37,2013-02-23 02:40:00,
2013-02-22 21:45:00,33.9,26.8,30.06,SE,136,2.6,13.0,75,0.00,CLR,,0.00,WeatherDisplay:10.37,2013-02-23 02:45:00,
2013-02-22 21:50:00,33.8,26.4,30.06,SSE,160,2.7,13.0,74,0.00,CLR,,0.00,WeatherDisplay:10.37,2013-02-23 02:50:00,
2013-02-22 21:55:00,33.5,26.4,30.06,ENE,62,1.1,13.0,75,0.00,CLR,,0.00,WeatherDisplay:10.37,2013-02-23 02:55:00,
2013-02-22 22:00:00,33.2,26.1,30.06,East,96,4.8,13.0,75,0.00,CLR,,0.00,WeatherDisplay:10.37,2013-02-23 03:00:00,
2013-02-22 22:05:00,33.2,26.1,30.05,East,101,0.3,13.0,75,0.00,CLR,,0.00,WeatherDisplay:10.37,2013-02-23 03:05:00,
2013-02-22 22:10:00,33.0,26.3,30.05,SSW,197,1.0,13.0,76,0.00,CLR,,0.00,WeatherDisplay:10.37,2013-02-23 03:10:00,
2013-02-22 22:15:00,32.8,26.1,30.05,South,174,2.8,13.0,76,0.00,CLR,,0.00,WeatherDisplay:10.37,2013-02-23 03:15:00,
2013-02-22 22:20:00,32.7,26.0,30.05,SSW,205,2.7,13.0,76,0.00,CLR,,0.00,WeatherDisplay:10.37,2013-02-23 03:20:00,
2013-02-22 22:25:00,32.5,25.8,30.05,SE,136,1.5,13.0,76,0.00,CLR,,0.00,WeatherDisplay:10.37,2013-02-23 03:25:00,
2013-02-22 22:30:00,32.4,26.0,30.05,SSW,203,1.7,13.0,77,0.00,CLR,,0.00,WeatherDisplay:10.37,2013-02-23 03:30:00,
2013-02-22 22:35:00,32.4,26.0,30.05,NNE,32,2.1,13.0,77,0.00,CLR,,0.00,WeatherDisplay:10.37,2013-02-23 03:35:00,
2013-02-22 22:40:00,32.4,26.3,30.05,East,90,1.3,13.0,78,0.00,CLR,,0.00,WeatherDisplay:10.37,2013-02-23 03:40:00,
2013-02-22 22:45:00,32.3,25.9,30.05,SSE,163,1.3,13.0,77,0.00,CLR,,0.00,WeatherDisplay:10.37,2013-02-23 03:45:00,
2013-02-22 22:50:00,32.3,26.2,30.05,SW,236,0.9,13.0,78,0.00,CLR,,0.00,WeatherDisplay:10.37,2013-02-23 03:50:00,
2013-02-22 22:55:00,32.1,26.0,30.05,SSE,165,2.1,13.0,78,0.00,CLR,,0.00,WeatherDisplay:10.37,2013-02-23 03:55:00,
2013-02-22 23:00:00,32.0,25.9,30.05,SE,146,0.6,13.0,78,0.00,CLR,,0.00,WeatherDisplay:10.37,2013-02-23 04:00:00,
2013-02-22 23:05:00,32.0,25.9,30.05,SSE,158,1.0,13.0,78,0.00,CLR,,0.00,WeatherDisplay:10.37,2013-02-23 04:05:00,
2013-02-22 23:10:00,31.9,25.8,30.05,SSW,203,1.3,13.0,78,0.00,CLR,,0.00,WeatherDisplay:10.37,2013-02-23 04:10:00,
2013-02-22 23:15:00,31.8,25.7,30.05,SW,220,2.0,13.0,78,0.00,CLR,,0.00,WeatherDisplay:10.37,2013-02-23 04:15:00,
2013-02-22 23:20:00,31.7,25.6,30.05,SSW,205,0.0,13.0,78,0.00,CLR,,0.00,WeatherDisplay:10.37,2013-02-23 04:20:00,
2013-02-22 23:25:00,31.5,25.7,30.05,South,176,0.6,13.0,79,0.00,CLR,,0.00,WeatherDisplay:10.37,2013-02-23 04:25:00,
2013-02-22 23:30:00,31.4,25.6,30.04,SSW,192,1.6,13.0,79,0.00,CLR,,0.00,WeatherDisplay:10.37,2013-02-23 04:30:00,
2013-02-22 23:35:00,31.3,25.5,30.04,West,260,0.9,13.0,79,0.00,CLR,,0.00,WeatherDisplay:10.37,2013-02-23 04:35:00,
2013-02-22 23:40:00,31.2,25.4,30.04,SSW,207,1.6,13.0,79,0.00,CLR,,0.00,WeatherDisplay:10.37,2013-02-23 04:40:00,
2013-02-22 23:45:00,31.2,25.7,30.04,ENE,68,1.2,13.0,80,0.00,CLR,,0.00,WeatherDisplay:10.37,2013-02-23 04:45:00,
2013-02-22 23:50:00,31.4,25.9,30.04,East,96,1.4,13.0,80,0.00,CLR,,0.00,WeatherDisplay:10.37,2013-02-23 04:50:00,
2013-02-22 23:55:00,31.6,26.1,30.04,ESE,110,3.4,6.0,80,0.00,CLR,,0.00,WeatherDisplay:10.37,2013-02-23 04:55:00,